Time;durP1;ratioP1;P1;durP2;ratioP2;P2;SDS_P1;SDS_P2;PMS_P1;PMS_P2;Temp;Humidity;BMP_temperature;BMP_pressure;BME280_temperature;BME280_humidity;BME280_pressure;Samples;Min_cycle;Max_cycle;Signal;HPM_P1;HPM_P2
2023/06/08 00:01:54;;;;;;;2.40;1.33;;;14.10;99.30;;;;;;5055023;28;20409;-73
2023/06/08 00:04:25;;;;;;;3.47;3.13;;;14.10;99.40;;;;;;5054750;28;20533;-72
2023/06/08 00:06:52;;;;;;;0.87;0.87;;;14.10;99.20;;;;;;5054612;28;20908;-72
2023/06/08 00:09:18;;;;;;;1.17;1.17;;;14.10;99.50;;;;;;5054884;28;20937;-72
2023/06/08 00:11:44;;;;;;;1.67;1.27;;;14.00;99.20;;;;;;5054789;28;20405;-73
2023/06/08 00:14:10;;;;;;;1.77;1.67;;;14.20;99.90;;;;;;5054775;28;20478;-74
2023/06/08 00:16:37;;;;;;;1.70;1.60;;;14.10;99.10;;;;;;5054380;28;20906;-70
2023/06/08 00:19:03;;;;;;;1.17;1.17;;;14.10;99.00;;;;;;5053824;28;20657;-70
2023/06/08 00:21:29;;;;;;;6.40;2.50;;;14.00;99.00;;;;;;5054577;28;20443;-71
2023/06/08 00:23:55;;;;;;;1.83;1.37;;;14.00;98.90;;;;;;5054794;28;20458;-72
2023/06/08 00:26:22;;;;;;;1.83;1.63;;;13.90;99.10;;;;;;5054131;28;20435;-71
2023/06/08 00:28:48;;;;;;;0.97;0.97;;;13.80;99.30;;;;;;5054553;28;20424;-71
2023/06/08 00:31:17;;;;;;;1.80;1.27;;;13.70;99.40;;;;;;5054450;28;20447;-71
2023/06/08 00:33:43;;;;;;;3.43;3.13;;;13.70;99.80;;;;;;5054233;28;20471;-72
2023/06/08 00:36:09;;;;;;;1.77;1.67;;;13.70;99.80;;;;;;5053919;28;20435;-71
2023/06/08 00:38:35;;;;;;;1.67;1.57;;;13.70;99.90;;;;;;5054300;28;20252;-72
2023/06/08 00:41:01;;;;;;;1.40;1.40;;;13.70;99.70;;;;;;5054287;28;20961;-73
2023/06/08 00:43:27;;;;;;;3.10;2.33;;;13.60;99.50;;;;;;5054294;28;20170;-72
2023/06/08 00:45:55;;;;;;;0.97;0.97;;;13.70;99.40;;;;;;5053757;28;20431;-73
2023/06/08 00:48:21;;;;;;;3.80;2.40;;;13.70;99.30;;;;;;5054194;28;20177;-73
2023/06/08 00:50:47;;;;;;;3.27;3.07;;;13.60;99.50;;;;;;5054251;28;20411;-72
2023/06/08 00:53:16;;;;;;;1.03;1.03;;;13.60;99.60;;;;;;5054236;28;20448;-72
2023/06/08 00:55:43;;;;;;;1.33;1.33;;;13.60;99.70;;;;;;5053743;28;20429;-73
2023/06/08 00:58:13;;;;;;;0.60;0.60;;;13.60;99.80;;;;;;5053952;28;20412;-73
2023/06/08 01:00:42;;;;;;;1.27;1.17;;;13.60;99.80;;;;;;5054072;28;20400;-71
2023/06/08 01:03:08;;;;;;;0.93;0.93;;;13.50;99.70;;;;;;5053746;28;20432;-73
2023/06/08 01:05:38;;;;;;;2.73;1.83;;;13.60;99.40;;;;;;5053477;28;20460;-73
2023/06/08 01:08:10;;;;;;;1.23;1.03;;;13.50;99.40;;;;;;5053782;28;20460;-70
2023/06/08 01:11:21;;;;;;;2.07;1.97;;;13.40;99.10;;;;;;5053620;28;20816;-71
2023/06/08 01:14:08;;;;;;;1.90;1.80;;;13.40;98.90;;;;;;5052829;28;20485;-71
2023/06/08 01:16:40;;;;;;;1.83;1.73;;;13.30;99.10;;;;;;5053312;28;20412;-72
2023/06/08 01:19:11;;;;;;;2.20;1.60;;;13.40;99.20;;;;;;5053614;28;20547;-70
2023/06/08 01:21:40;;;;;;;1.60;1.50;;;13.40;99.00;;;;;;5053547;28;20397;-71
2023/06/08 01:24:20;;;;;;;2.70;2.50;;;13.30;99.90;;;;;;5053526;28;20404;-72
2023/06/08 01:26:50;;;;;;;2.00;1.90;;;13.40;99.00;;;;;;5053230;28;20420;-71
2023/06/08 01:29:18;;;;;;;1.53;1.43;;;13.50;98.50;;;;;;5053609;28;20403;-73
2023/06/08 01:31:43;;;;;;;2.13;1.63;;;13.40;98.50;;;;;;5053397;28;20473;-71
2023/06/08 01:34:12;;;;;;;5.00;1.70;;;13.50;99.90;;;;;;5053449;28;20412;-72
2023/06/08 01:36:50;;;;;;;1.50;1.40;;;13.40;98.80;;;;;;5053168;28;20177;-73
2023/06/08 01:39:31;;;;;;;1.80;1.67;;;13.40;99.10;;;;;;5053094;28;20510;-74
2023/06/08 01:42:02;;;;;;;1.70;1.60;;;13.20;99.10;;;;;;5053433;28;20897;-73
2023/06/08 01:44:31;;;;;;;2.83;2.13;;;13.20;99.10;;;;;;5051934;28;20778;-72
2023/06/08 01:46:59;;;;;;;1.53;1.43;;;13.20;99.10;;;;;;5051748;28;20422;-71
2023/06/08 01:49:27;;;;;;;1.07;1.07;;;13.20;99.30;;;;;;5052933;28;20436;-72
2023/06/08 01:51:53;;;;;;;1.80;1.70;;;13.20;99.30;;;;;;5053299;28;20858;-73
2023/06/08 01:54:21;;;;;;;1.37;1.00;;;13.20;99.20;;;;;;5053167;28;20423;-73
2023/06/08 01:56:47;;;;;;;2.10;1.70;;;13.20;99.10;;;;;;5052877;28;20775;-72
2023/06/08 01:59:13;;;;;;;1.73;1.63;;;13.30;98.90;;;;;;5052982;28;20512;-73
2023/06/08 02:01:38;;;;;;;1.67;1.57;;;13.30;98.60;;;;;;5053407;28;20633;-70
2023/06/08 02:04:04;;;;;;;1.57;1.47;;;13.20;99.90;;;;;;5053076;28;20177;-73
2023/06/08 02:06:30;;;;;;;2.00;1.20;;;13.20;98.80;;;;;;5052926;28;20179;-72
2023/06/08 02:08:57;;;;;;;1.80;1.20;;;13.30;98.50;;;;;;5053100;28;20503;-73
2023/06/08 02:11:23;;;;;;;1.10;1.10;;;13.30;98.30;;;;;;5053325;28;20494;-71
2023/06/08 02:13:49;;;;;;;1.33;1.23;;;13.30;98.40;;;;;;5052983;28;20411;-72
2023/06/08 02:16:14;;;;;;;3.10;2.00;;;13.30;98.30;;;;;;5052651;28;20441;-72
2023/06/08 02:18:41;;;;;;;1.47;1.37;;;13.20;98.40;;;;;;5052888;28;20463;-71
2023/06/08 02:21:11;;;;;;;1.47;1.47;;;13.20;98.60;;;;;;5052980;28;20180;-70
2023/06/08 02:23:37;;;;;;;1.37;1.27;;;13.10;98.80;;;;;;5052962;28;20407;-73
2023/06/08 02:26:04;;;;;;;1.53;1.43;;;13.10;99.20;;;;;;5052526;28;20420;-72
2023/06/08 02:28:30;;;;;;;1.27;1.17;;;13.10;98.60;;;;;;5052795;28;20413;-73
2023/06/08 02:30:56;;;;;;;1.50;1.40;;;13.10;98.50;;;;;;5052840;28;20749;-73
2023/06/08 02:33:21;;;;;;;0.97;0.97;;;13.20;98.50;;;;;;5053050;28;20190;-70
2023/06/08 02:35:48;;;;;;;1.67;1.40;;;;;;;;;;5052519;28;20201;-73
2023/06/08 02:38:14;;;;;;;6.97;2.87;;;13.10;98.30;;;;;;5052757;28;20270;-73
2023/06/08 02:40:41;;;;;;;2.00;0.70;;;13.10;98.80;;;;;;5052643;28;20415;-70
2023/06/08 02:43:08;;;;;;;1.83;1.73;;;13.10;98.60;;;;;;5054459;28;20483;-70
2023/06/08 02:45:34;;;;;;;2.47;2.30;;;13.00;98.70;;;;;;5056012;28;20431;-72
2023/06/08 02:47:59;;;;;;;4.40;1.90;;;12.90;98.80;;;;;;5056372;28;20397;-73
2023/06/08 02:50:25;;;;;;;2.77;2.50;;;12.90;99.10;;;;;;5056263;28;20547;-71
2023/06/08 02:52:51;;;;;;;1.53;1.43;;;13.00;98.60;;;;;;5056320;28;20178;-73
2023/06/08 02:55:16;;;;;;;1.17;1.07;;;13.00;98.70;;;;;;5056030;28;20196;-72
2023/06/08 02:57:42;;;;;;;2.00;1.57;;;13.00;98.70;;;;;;5055942;28;20181;-73
2023/06/08 03:00:08;;;;;;;1.80;1.70;;;13.00;99.00;;;;;;5056460;28;20205;-71
2023/06/08 03:02:34;;;;;;;2.80;1.47;;;13.00;99.20;;;;;;5056039;28;20166;-72
2023/06/08 03:05:03;;;;;;;1.27;1.13;;;12.90;99.40;;;;;;5055858;28;20428;-72
2023/06/08 03:07:30;;;;;;;1.63;1.00;;;12.90;99.60;;;;;;5054426;28;20916;-73
2023/06/08 03:09:55;;;;;;;0.60;0.53;;;12.90;99.90;;;;;;5055830;28;20445;-73
2023/06/08 03:12:21;;;;;;;1.37;0.87;;;13.00;99.90;;;;;;5056039;28;20458;-71
2023/06/08 03:14:48;;;;;;;2.10;1.87;;;13.00;99.70;;;;;;5055962;28;20196;-70
2023/06/08 03:17:17;;;;;;;2.83;1.37;;;13.10;99.60;;;;;;5055639;28;20174;-70
2023/06/08 03:19:43;;;;;;;1.83;1.73;;;13.30;99.50;;;;;;5055860;28;20482;-73
2023/06/08 03:22:09;;;;;;;0.93;0.93;;;13.30;98.90;;;;;;5055840;28;20413;-73
2023/06/08 03:24:36;;;;;;;1.43;1.33;;;13.40;99.20;;;;;;5055695;28;20443;-73
2023/06/08 03:27:03;;;;;;;1.37;1.27;;;13.40;99.30;;;;;;5055536;28;20409;-71
2023/06/08 03:29:30;;;;;;;2.63;1.40;;;13.40;99.30;;;;;;5055758;28;20458;-72
2023/06/08 03:31:56;;;;;;;1.23;1.23;;;13.50;99.40;;;;;;5055593;28;20896;-71
2023/06/08 03:34:25;;;;;;;1.53;1.40;;;13.40;99.30;;;;;;5055294;28;20451;-70
2023/06/08 03:36:52;;;;;;;3.50;1.70;;;13.40;99.50;;;;;;5055124;28;20504;-71
2023/06/08 03:39:18;;;;;;;0.70;0.67;;;13.40;99.40;;;;;;5054868;28;20889;-70
2023/06/08 03:41:44;;;;;;;1.10;1.10;;;13.50;99.20;;;;;;5055461;28;20494;-73
2023/06/08 03:44:09;;;;;;;0.87;0.83;;;13.80;99.90;;;;;;5055021;28;20189;-73
2023/06/08 03:46:35;;;;;;;1.67;1.57;;;13.60;98.30;;;;;;5054953;28;20401;-71
2023/06/08 03:49:01;;;;;;;1.60;1.50;;;13.60;98.60;;;;;;5054967;28;20239;-71
2023/06/08 03:51:27;;;;;;;2.60;2.40;;;13.70;98.90;;;;;;5055216;28;20650;-73
2023/06/08 03:53:52;;;;;;;1.90;1.80;;;13.60;99.40;;;;;;5054038;28;20443;-72
2023/06/08 03:56:18;;;;;;;0.90;0.90;;;13.60;99.10;;;;;;5054621;28;20433;-71
2023/06/08 03:58:45;;;;;;;1.70;1.60;;;13.60;98.90;;;;;;5054285;28;20224;-72
2023/06/08 04:01:13;;;;;;;0.90;0.90;;;13.70;98.70;;;;;;5054879;28;20468;-73
2023/06/08 04:03:40;;;;;;;1.70;1.60;;;13.70;98.90;;;;;;5054950;28;20436;-69
2023/06/08 04:06:08;;;;;;;2.83;2.03;;;13.80;98.80;;;;;;5054634;28;20427;-71
2023/06/08 04:08:35;;;;;;;1.80;1.70;;;13.70;98.70;;;;;;5054817;28;20879;-70
2023/06/08 04:11:01;;;;;;;1.57;1.43;;;13.60;99.00;;;;;;5054875;28;20903;-71
2023/06/08 04:13:26;;;;;;;1.13;1.13;;;13.70;98.80;;;;;;5054647;28;20405;-71
2023/06/08 04:15:52;;;;;;;2.53;1.70;;;13.80;98.40;;;;;;5054618;28;20231;-73
2023/06/08 04:18:18;;;;;;;4.57;2.47;;;13.80;98.60;;;;;;5054602;28;20540;-71
2023/06/08 04:20:44;;;;;;;2.73;2.27;;;13.80;98.80;;;;;;5054819;28;20413;-71
2023/06/08 04:23:11;;;;;;;1.83;1.70;;;13.90;99.00;;;;;;5054652;28;20191;-70
2023/06/08 04:25:36;;;;;;;1.87;1.53;;;13.90;99.10;;;;;;5054094;28;20959;-71
2023/06/08 04:28:03;;;;;;;2.47;2.37;;;14.00;98.90;;;;;;5054373;28;20405;-73
2023/06/08 04:30:28;;;;;;;1.80;1.70;;;14.00;99.00;;;;;;5054312;28;20411;-70
2023/06/08 04:32:55;;;;;;;1.80;1.70;;;14.10;99.20;;;;;;5054237;28;20504;-70
2023/06/08 04:35:21;;;;;;;2.00;1.87;;;14.30;99.60;;;;;;5054167;28;20195;-73
2023/06/08 04:37:47;;;;;;;0.80;0.80;;;14.60;99.40;;;;;;5054143;28;20496;-72
2023/06/08 04:40:13;;;;;;;0.93;0.93;;;14.90;98.10;;;;;;5054187;28;20482;-72
2023/06/08 04:42:40;;;;;;;2.30;2.20;;;15.20;98.00;;;;;;5054336;28;20409;-73
2023/06/08 04:45:08;;;;;;;1.97;1.50;;;15.30;97.70;;;;;;5053985;28;20602;-70
2023/06/08 04:47:35;;;;;;;2.30;2.20;;;15.50;97.60;;;;;;5053894;28;20499;-71
2023/06/08 04:50:02;;;;;;;0.70;0.70;;;15.70;97.70;;;;;;5054027;28;20424;-71
2023/06/08 04:52:27;;;;;;;1.60;1.50;;;16.10;96.60;;;;;;5054117;28;20412;-73
2023/06/08 04:54:53;;;;;;;1.77;1.67;;;16.40;96.20;;;;;;5053978;28;20783;-71
2023/06/08 04:57:21;;;;;;;1.10;1.07;;;16.80;96.00;;;;;;5053785;28;20213;-72
2023/06/08 04:59:47;;;;;;;1.43;1.33;;;17.00;94.80;;;;;;5053940;28;20194;-73
2023/06/08 05:02:13;;;;;;;3.03;2.00;;;17.10;94.60;;;;;;5053824;28;20401;-74
2023/06/08 05:04:39;;;;;;;1.10;1.10;;;17.40;94.50;;;;;;5053704;28;20438;-71
2023/06/08 05:07:05;;;;;;;2.17;1.30;;;17.70;94.00;;;;;;5053236;28;20171;-70
2023/06/08 05:09:30;;;;;;;1.23;1.23;;;18.00;93.20;;;;;;5053572;28;20216;-74
2023/06/08 05:11:56;;;;;;;1.60;1.23;;;18.30;92.60;;;;;;5053608;28;20923;-71
2023/06/08 05:14:22;;;;;;;1.50;1.40;;;18.50;91.90;;;;;;5053675;28;20197;-74
2023/06/08 05:16:47;;;;;;;1.63;0.90;;;18.90;91.30;;;;;;5053376;28;20540;-74
2023/06/08 05:19:13;;;;;;;1.90;1.80;;;19.10;90.00;;;;;;5053616;28;20209;-72
2023/06/08 05:21:40;;;;;;;1.00;0.90;;;19.10;90.20;;;;;;5053692;28;20173;-73
2023/06/08 05:24:06;;;;;;;1.53;1.43;;;19.10;93.50;;;;;;5053331;28;20414;-72
2023/06/08 05:26:32;;;;;;;1.50;1.40;;;18.90;88.30;;;;;;5053264;28;20930;-72
2023/06/08 05:28:58;;;;;;;1.63;1.43;;;18.70;88.60;;;;;;5053442;28;20411;-71
2023/06/08 05:31:24;;;;;;;1.90;1.70;;;18.60;90.30;;;;;;5052151;28;20419;-71
2023/06/08 05:33:50;;;;;;;0.60;0.60;;;18.40;90.50;;;;;;5053538;28;20919;-71
2023/06/08 05:36:15;;;;;;;1.73;1.10;;;18.30;90.70;;;;;;5051761;28;20442;-72
2023/06/08 05:38:41;;;;;;;2.07;1.87;;;18.10;91.60;;;;;;5053239;28;20204;-72
2023/06/08 05:41:07;;;;;;;1.13;1.07;;;18.20;92.30;;;;;;5053431;28;20172;-71
2023/06/08 05:43:32;;;;;;;1.23;1.23;;;18.40;92.70;;;;;;5053313;28;20239;-73
2023/06/08 05:45:58;;;;;;;1.20;1.10;;;18.60;92.10;;;;;;5052977;28;20210;-72
2023/06/08 05:48:24;;;;;;;1.50;1.40;;;18.80;91.80;;;;;;5053254;28;20267;-73
2023/06/08 05:50:50;;;;;;;0.63;0.63;;;18.90;91.80;;;;;;5053485;28;20174;-73
2023/06/08 05:53:15;;;;;;;2.60;1.57;;;19.00;91.70;;;;;;5053252;28;20241;-73
2023/06/08 05:55:41;;;;;;;0.73;0.73;;;19.00;91.70;;;;;;5052922;28;20426;-72
2023/06/08 05:58:08;;;;;;;1.33;1.20;;;18.90;91.20;;;;;;5053121;28;20203;-72
2023/06/08 06:00:34;;;;;;;1.43;1.33;;;18.80;90.10;;;;;;5053106;28;20459;-71
2023/06/08 06:02:59;;;;;;;1.20;1.20;;;18.70;89.00;;;;;;5053070;28;20405;-72
2023/06/08 06:05:25;;;;;;;2.07;1.60;;;18.70;90.00;;;;;;5052934;28;20216;-74
2023/06/08 06:07:51;;;;;;;0.77;0.77;;;18.70;90.40;;;;;;5052952;28;20172;-74
2023/06/08 06:10:16;;;;;;;2.10;2.00;;;18.80;90.10;;;;;;5052932;28;20213;-72
2023/06/08 06:12:42;;;;;;;2.57;1.80;;;18.80;91.00;;;;;;5053032;28;20180;-72
2023/06/08 06:15:08;;;;;;;1.13;1.00;;;19.00;90.90;;;;;;5052852;28;20200;-73
2023/06/08 06:17:34;;;;;;;0.50;0.50;;;19.30;90.80;;;;;;5053821;28;20177;-75
2023/06/08 06:19:59;;;;;;;1.07;1.07;;;19.90;90.00;;;;;;5056982;28;20941;-72
2023/06/08 06:22:25;;;;;;;0.90;0.90;;;20.50;88.90;;;;;;5056952;28;20582;-73
2023/06/08 06:24:51;;;;;;;2.57;1.47;;;20.90;87.10;;;;;;5056717;28;20194;-72
2023/06/08 06:27:17;;;;;;;2.00;1.73;;;20.90;86.80;;;;;;5056586;28;20176;-71
2023/06/08 06:29:42;;;;;;;1.20;1.17;;;20.80;87.00;;;;;;5056718;28;20174;-73
2023/06/08 06:32:08;;;;;;;1.73;1.50;;;20.60;88.50;;;;;;5056787;28;20251;-71
2023/06/08 06:34:35;;;;;;;0.63;0.63;;;20.30;88.80;;;;;;5057035;28;20784;-71
2023/06/08 06:37:00;;;;;;;1.67;1.57;;;20.10;91.10;;;;;;5056343;28;20413;-71
2023/06/08 06:39:28;;;;;;;0.80;0.80;;;19.90;92.00;;;;;;5056483;28;20477;-71
2023/06/08 06:41:53;;;;;;;2.00;1.03;;;19.80;92.40;;;;;;5056511;28;20617;-74
2023/06/08 06:44:19;;;;;;;1.17;1.07;;;19.50;99.70;;;;;;5056447;28;20463;-71
2023/06/08 06:46:45;;;;;;;1.30;1.20;;;19.40;93.70;;;;;;5056164;28;20166;-72
2023/06/08 06:49:10;;;;;;;2.00;1.90;;;19.00;93.10;;;;;;5056269;28;20192;-72
2023/06/08 06:51:36;;;;;;;1.17;1.17;;;18.70;92.80;;;;;;5056241;28;20600;-72
2023/06/08 06:54:02;;;;;;;1.73;1.33;;;18.30;93.10;;;;;;5056153;28;20189;-72
2023/06/08 06:56:28;;;;;;;1.63;1.53;;;18.60;92.70;;;;;;5056329;28;20206;-74
2023/06/08 06:58:53;;;;;;;0.80;0.80;;;18.50;92.00;;;;;;5056151;28;20959;-71
2023/06/08 07:01:19;;;;;;;0.70;0.70;;;18.50;91.70;;;;;;5056179;28;20578;-71
2023/06/08 07:03:46;;;;;;;0.83;0.83;;;18.50;91.60;;;;;;5056229;28;20168;-70
2023/06/08 07:06:12;;;;;;;1.27;1.13;;;18.50;93.70;;;;;;5055644;28;20196;-72
2023/06/08 07:08:39;;;;;;;1.33;1.20;;;18.40;92.10;;;;;;5056078;28;20905;-70
2023/06/08 07:11:05;;;;;;;1.43;1.00;;;18.50;93.10;;;;;;5055896;28;20811;-71
2023/06/08 07:13:31;;;;;;;1.50;1.43;;;18.70;93.90;;;;;;5055960;28;20410;-71
2023/06/08 07:15:57;;;;;;;1.33;1.13;;;18.90;93.50;;;;;;5055733;28;20429;-72
2023/06/08 07:18:23;;;;;;;1.10;1.10;;;19.00;93.60;;;;;;5055841;28;20413;-70
2023/06/08 07:20:49;;;;;;;1.60;1.00;;;19.20;93.50;;;;;;5056189;28;20795;-75
2023/06/08 07:23:15;;;;;;;0.90;0.90;;;19.20;93.00;;;;;;5055718;28;20175;-71
2023/06/08 07:25:40;;;;;;;1.07;1.07;;;19.40;93.30;;;;;;5055465;28;20991;-71
2023/06/08 07:28:08;;;;;;;1.10;1.10;;;19.40;93.50;;;;;;5055403;28;20173;-72
2023/06/08 07:30:34;;;;;;;0.97;0.97;;;19.50;93.60;;;;;;5055706;28;20177;-71
2023/06/08 07:33:06;;;;;;;0.90;0.87;;;19.40;94.90;;;;;;5055662;28;20751;-70
2023/06/08 07:35:32;;;;;;;2.00;1.70;;;19.10;95.10;;;;;;5055280;28;20474;-74
2023/06/08 07:37:57;;;;;;;1.17;1.17;;;19.10;96.30;;;;;;5055389;28;20444;-73
2023/06/08 07:40:23;;;;;;;0.90;0.90;;;19.20;94.10;;;;;;5055412;28;20252;-71
2023/06/08 07:42:49;;;;;;;1.93;1.80;;;19.40;93.60;;;;;;5055481;28;20217;-73
2023/06/08 07:45:14;;;;;;;1.53;1.43;;;19.70;92.90;;;;;;5055403;28;20669;-72
2023/06/08 07:47:41;;;;;;;1.67;1.57;;;20.00;93.10;;;;;;5055109;28;20162;-72
2023/06/08 07:50:07;;;;;;;1.60;1.50;;;20.40;91.40;;;;;;5055078;28;20327;-71
2023/06/08 07:52:33;;;;;;;0.80;0.80;;;20.40;91.00;;;;;;5055142;28;20445;-72
2023/06/08 07:54:59;;;;;;;3.10;1.97;;;20.00;90.10;;;;;;5055060;28;20460;-71
2023/06/08 07:57:25;;;;;;;1.70;1.60;;;19.70;90.30;;;;;;5055110;28;20235;-72
2023/06/08 07:59:50;;;;;;;0.77;0.77;;;19.60;90.40;;;;;;5055092;28;20225;-73
2023/06/08 08:02:16;;;;;;;0.50;0.50;;;19.70;90.20;;;;;;5054965;28;20511;-73
2023/06/08 08:04:42;;;;;;;1.07;0.80;;;20.10;90.00;;;;;;5054887;28;20202;-73
2023/06/08 08:07:08;;;;;;;0.93;0.93;;;20.70;87.60;;;;;;5054696;28;20172;-73
2023/06/08 08:09:33;;;;;;;1.00;0.90;;;21.10;88.20;;;;;;5054851;28;20178;-72
2023/06/08 08:11:59;;;;;;;1.13;1.03;;;21.40;87.60;;;;;;5054974;28;20179;-73
2023/06/08 08:14:25;;;;;;;1.60;1.00;;;21.50;90.20;;;;;;5054865;28;20189;-72
2023/06/08 08:16:51;;;;;;;2.10;2.00;;;21.30;90.30;;;;;;5054419;28;20679;-72
2023/06/08 08:19:17;;;;;;;1.97;1.73;;;21.20;90.40;;;;;;5054534;28;20306;-73
2023/06/08 08:21:42;;;;;;;1.10;1.10;;;21.00;90.40;;;;;;5054598;28;20521;-74
2023/06/08 08:24:08;;;;;;;1.27;1.17;;;20.90;94.90;;;;;;5054541;28;20174;-74
2023/06/08 08:26:35;;;;;;;1.93;1.17;;;20.90;91.00;;;;;;5054264;28;20175;-74
2023/06/08 08:29:00;;;;;;;1.30;1.30;;;20.90;91.50;;;;;;5054588;28;20413;-73
2023/06/08 08:31:26;;;;;;;1.60;1.50;;;21.10;92.00;;;;;;5054396;28;20442;-73
2023/06/08 08:33:52;;;;;;;1.30;1.23;;;21.30;91.70;;;;;;5054316;28;20178;-74
2023/06/08 08:36:17;;;;;;;1.13;1.03;;;21.50;90.30;;;;;;5054093;28;20684;-71
2023/06/08 08:38:43;;;;;;;2.63;1.03;;;21.70;90.70;;;;;;5054483;28;20195;-71
2023/06/08 08:41:13;;;;;;;1.23;1.13;;;22.00;90.70;;;;;;5053768;28;20170;-72
2023/06/08 08:43:52;;;;;;;2.20;1.90;;;22.20;86.40;;;;;;5054425;28;20363;-74
2023/06/08 08:46:21;;;;;;;1.23;1.23;;;22.60;85.10;;;;;;5053857;28;20924;-73
2023/06/08 08:48:50;;;;;;;0.70;0.70;;;22.90;83.10;;;;;;5053856;28;20436;-71
2023/06/08 08:51:20;;;;;;;1.53;1.37;;;23.10;83.10;;;;;;5054092;28;20481;-74
2023/06/08 08:53:50;;;;;;;4.60;2.03;;;23.40;83.50;;;;;;5053939;28;20815;-73
2023/06/08 08:56:25;;;;;;;0.93;0.93;;;23.80;81.40;;;;;;5053614;28;20443;-74
2023/06/08 08:58:52;;;;;;;1.20;1.10;;;23.90;82.80;;;;;;5053741;28;20447;-73
2023/06/08 09:01:18;;;;;;;1.80;1.70;;;24.10;81.20;;;;;;5053849;28;20400;-73
2023/06/08 09:03:47;;;;;;;1.73;1.40;;;24.20;81.80;;;;;;5053835;28;20378;-75
2023/06/08 09:06:13;;;;;;;2.93;1.80;;;24.30;82.80;;;;;;5053630;28;20406;-72
2023/06/08 09:08:39;;;;;;;1.80;1.70;;;24.30;80.20;;;;;;5053735;28;20405;-71
2023/06/08 09:11:09;;;;;;;1.90;1.80;;;24.20;80.90;;;;;;5053800;28;20223;-74
2023/06/08 09:13:35;;;;;;;2.20;1.37;;;24.20;81.50;;;;;;5053640;28;20380;-74
2023/06/08 09:16:14;;;;;;;2.37;1.33;;;24.90;79.80;;;;;;5053410;28;20944;-74
2023/06/08 09:18:41;;;;;;;1.07;0.90;;;26.20;74.10;;;;;;5053665;28;20458;-72
2023/06/08 09:21:29;;;;;;;0.80;0.80;;;28.50;66.90;;;;;;5053625;28;20397;-72
2023/06/08 09:24:06;;;;;;;1.07;1.03;;;30.90;57.00;;;;;;5053453;28;20408;-75
2023/06/08 09:26:32;;;;;;;1.43;1.33;;;33.00;50.60;;;;;;5053377;28;20435;-74
2023/06/08 09:29:03;;;;;;;1.43;1.20;;;34.00;44.50;;;;;;5053483;28;20397;-73
2023/06/08 09:31:29;;;;;;;1.30;1.20;;;34.50;41.60;;;;;;5053369;28;20400;-74
2023/06/08 09:34:11;;;;;;;1.17;1.07;;;34.80;37.90;;;;;;5053518;28;20404;-74
2023/06/08 09:36:38;;;;;;;2.30;1.70;;;35.30;36.30;;;;;;5053134;28;20393;-74
2023/06/08 09:39:08;;;;;;;1.43;0.80;;;35.70;38.60;;;;;;5053227;28;20449;-73
2023/06/08 09:41:37;;;;;;;0.90;0.90;;;35.50;36.80;;;;;;5053420;28;20408;-73
2023/06/08 09:44:17;;;;;;;1.13;1.13;;;35.70;34.10;;;;;;5053380;28;20392;-74
2023/06/08 09:46:46;;;;;;;1.27;1.17;;;36.10;32.70;;;;;;5053104;28;20435;-72
2023/06/08 09:49:13;;;;;;;3.07;1.77;;;35.30;30.60;;;;;;5053040;28;20428;-71
2023/06/08 09:51:51;;;;;;;1.33;1.23;;;33.00;31.90;;;;;;5054485;28;20781;-74
2023/06/08 09:54:19;;;;;;;0.93;0.90;;;29.50;46.90;;;;;;5057477;28;20546;-75
2023/06/08 09:56:47;;;;;;;1.53;1.10;;;29.50;41.40;;;;;;5057120;28;20889;-72
2023/06/08 09:59:17;;;;;;;1.23;1.00;;;28.60;42.60;;;;;;5057345;28;20447;-72
2023/06/08 10:01:48;;;;;;;0.87;0.83;;;27.80;46.30;;;;;;5057247;28;20946;-72
2023/06/08 10:04:25;;;;;;;1.30;1.20;;;26.40;60.40;;;;;;5057281;28;20415;-72
2023/06/08 10:07:15;;;;;;;1.43;1.33;;;26.10;51.80;;;;;;5057014;28;20849;-74
2023/06/08 10:09:44;;;;;;;1.30;1.00;;;25.30;56.00;;;;;;5057124;28;20404;-73
2023/06/08 10:12:11;;;;;;;1.20;1.10;;;24.50;56.00;;;;;;5057221;28;20425;-72
2023/06/08 10:14:38;;;;;;;1.20;1.10;;;24.00;57.80;;;;;;5056899;28;20531;-74
2023/06/08 10:17:04;;;;;;;1.37;1.37;;;23.70;59.10;;;;;;5057002;28;20458;-73
2023/06/08 10:19:35;;;;;;;1.17;1.10;;;23.60;58.80;;;;;;5057022;28;21024;-73
2023/06/08 10:22:01;;;;;;;1.33;0.93;;;23.60;58.00;;;;;;5057011;28;20158;-71
2023/06/08 10:24:27;;;;;;;2.40;1.90;;;23.60;58.10;;;;;;5056696;28;20474;-72
2023/06/08 10:27:28;;;;;;;1.13;1.13;;;23.60;57.70;;;;;;5056647;28;20375;-72
2023/06/08 10:29:59;;;;;;;1.30;1.07;;;23.60;59.60;;;;;;5056919;28;20374;-74
2023/06/08 10:32:33;;;;;;;1.50;1.40;;;23.50;58.10;;;;;;5056708;28;21010;-73
2023/06/08 10:35:04;;;;;;;1.00;1.00;;;23.40;58.90;;;;;;5056575;28;20420;-71
2023/06/08 10:37:31;;;;;;;1.00;0.90;;;23.40;60.70;;;;;;5056501;28;20799;-72
2023/06/08 10:39:58;;;;;;;1.90;1.67;;;23.40;59.50;;;;;;5056614;28;20457;-74
2023/06/08 10:42:24;;;;;;;1.13;0.87;;;23.50;57.50;;;;;;5056669;28;20802;-74
2023/06/08 10:44:57;;;;;;;1.03;0.90;;;23.60;55.40;;;;;;5056545;28;20421;-74
2023/06/08 10:47:24;;;;;;;2.17;2.07;;;23.70;54.10;;;;;;5056215;28;20408;-75
2023/06/08 10:49:59;;;;;;;1.20;1.10;;;23.70;52.90;;;;;;5056293;28;20791;-74
2023/06/08 10:52:26;;;;;;;0.80;0.80;;;23.60;53.10;;;;;;5056525;28;20400;-75
2023/06/08 10:54:57;;;;;;;1.33;1.23;;;23.60;53.30;;;;;;5056206;28;20468;-73
2023/06/08 10:57:44;;;;;;;0.90;0.90;;;23.50;56.60;;;;;;5055951;28;20411;-73
2023/06/08 11:00:32;;;;;;;1.30;1.20;;;23.20;58.80;;;;;;5056138;28;20447;-74
2023/06/08 11:03:06;;;;;;;2.20;1.07;;;22.90;59.60;;;;;;5055503;28;20724;-72
2023/06/08 11:05:36;;;;;;;0.93;0.93;;;22.60;64.20;;;;;;5055775;28;20438;-73
2023/06/08 11:08:03;;;;;;;1.20;1.00;;;22.30;68.70;;;;;;5056232;28;20441;-72
2023/06/08 11:10:32;;;;;;;1.57;1.47;;;22.00;68.60;;;;;;5055983;28;20502;-73
2023/06/08 11:13:11;;;;;;;1.50;1.40;;;21.70;73.90;;;;;;5056305;28;20486;-72
2023/06/08 11:15:39;;;;;;;1.40;1.30;;;21.40;76.70;;;;;;5055891;28;20426;-72
2023/06/08 11:18:07;;;;;;;2.03;1.93;;;21.00;82.10;;;;;;5055808;28;20492;-73
2023/06/08 11:20:32;;;;;;;2.03;1.93;;;20.70;91.30;;;;;;5056104;28;20470;-75
2023/06/08 11:23:01;;;;;;;1.80;1.70;;;20.40;92.60;;;;;;5055697;28;20905;-71
2023/06/08 11:25:27;;;;;;;1.00;0.87;;;20.20;94.90;;;;;;5055473;28;20198;-75
2023/06/08 11:27:55;;;;;;;2.40;2.20;;;19.80;95.80;;;;;;5055694;28;20885;-73
2023/06/08 11:30:21;;;;;;;1.40;1.30;;;19.50;95.50;;;;;;5055887;28;20410;-73
2023/06/08 11:32:49;;;;;;;1.60;1.57;;;19.40;95.60;;;;;;5055586;28;20453;-71
2023/06/08 11:35:16;;;;;;;2.00;1.37;;;19.20;93.90;;;;;;5055663;28;20452;-72
2023/06/08 11:37:43;;;;;;;1.10;1.07;;;19.30;91.50;;;;;;5055238;28;20463;-73
2023/06/08 11:40:11;;;;;;;1.83;1.73;;;19.60;91.10;;;;;;5055414;28;20527;-73
2023/06/08 11:42:39;;;;;;;2.10;2.00;;;19.90;88.30;;;;;;5055518;28;20761;-73
2023/06/08 11:45:06;;;;;;;7.93;2.00;;;20.50;93.20;;;;;;5055138;28;20429;-71
2023/06/08 11:47:32;;;;;;;3.30;3.10;;;21.10;91.80;;;;;;5054983;28;20932;-70
2023/06/08 11:50:00;;;;;;;1.63;1.53;;;21.20;91.20;;;;;;5055191;28;20428;-74
2023/06/08 11:52:27;;;;;;;1.77;1.67;;;21.20;91.70;;;;;;5055194;28;20405;-73
2023/06/08 11:54:54;;;;;;;1.77;1.67;;;21.10;91.10;;;;;;5055045;28;20439;-72
2023/06/08 11:57:21;;;;;;;1.87;1.70;;;20.80;91.40;;;;;;5054870;28;20404;-73
2023/06/08 11:59:47;;;;;;;1.57;1.47;;;20.60;92.00;;;;;;5055122;28;20443;-74
2023/06/08 12:02:13;;;;;;;1.00;1.00;;;20.30;91.80;;;;;;5055054;28;20396;-74
2023/06/08 12:04:40;;;;;;;1.20;1.10;;;20.10;93.50;;;;;;5054764;28;20473;-73
2023/06/08 12:07:09;;;;;;;2.37;2.17;;;19.90;93.90;;;;;;5054773;28;20162;-73
2023/06/08 12:09:35;;;;;;;1.70;1.60;;;19.70;95.40;;;;;;5054894;28;20435;-73
2023/06/08 12:22:06;;;;;;;5.53;2.20;;;18.80;98.80;;;;;;5054458;28;20422;-71
2023/06/08 12:24:32;;;;;;;1.10;1.10;;;18.40;99.30;;;;;;5054444;28;20908;-72
2023/06/08 12:26:57;;;;;;;1.40;1.30;;;18.10;99.30;;;;;;5054269;28;20579;-71
2023/06/08 12:29:23;;;;;;;1.60;1.13;;;17.70;99.90;;;;;;5054578;28;20405;-73
2023/06/08 12:31:48;;;;;;;0.93;0.93;;;17.40;99.90;;;;;;5054471;28;20174;-71
2023/06/08 12:34:14;;;;;;;1.30;1.20;;;17.10;99.90;;;;;;5054409;28;20166;-71
2023/06/08 12:36:40;;;;;;;1.93;1.77;;;17.20;99.90;;;;;;5054034;28;20212;-74
2023/06/08 12:39:06;;;;;;;2.23;1.50;;;17.30;99.90;;;;;;5054137;28;20205;-74
2023/06/08 12:41:31;;;;;;;2.37;2.17;;;17.30;99.90;;;;;;5054557;28;20405;-73
2023/06/08 12:43:57;;;;;;;1.30;1.20;;;17.40;99.90;;;;;;5054106;28;20272;-71
2023/06/08 12:46:23;;;;;;;1.33;1.23;;;17.50;99.90;;;;;;5053895;28;20183;-74
2023/06/08 12:48:48;;;;;;;1.83;1.73;;;17.60;99.90;;;;;;5053921;28;20240;-74
2023/06/08 12:51:15;;;;;;;2.27;2.07;;;17.80;99.90;;;;;;5054006;28;20168;-74
2023/06/08 12:53:41;;;;;;;1.83;1.70;;;18.10;99.90;;;;;;5053936;28;20197;-72
2023/06/08 12:56:07;;;;;;;1.50;1.40;;;18.40;99.90;;;;;;5053785;28;20428;-72
2023/06/08 12:58:33;;;;;;;2.07;1.90;;;18.80;99.90;;;;;;5054152;28;20408;-74
2023/06/08 13:00:59;;;;;;;0.60;0.60;;;19.00;99.90;;;;;;5053901;28;20180;-75